• Join FlightAware (Why Join?)
  • Login
  • US Flag 
08:44PM EDT


 

Airport Tracker/Info


-or-


 

Live Flight TrackerFlight Track Log ✈ TWY604 ✈ 02-May-2012 ✈ KRDM - PHKO / KOA

Flight Track Log - Related Links

Times and Time Zones

All times are in EDT time to prevent confusion due to time zone crossing. See the TWY604 flight status page for this flight to view local times or setup timezone preferences in your user account.

Time Position Orientation Groundspeed Altitude Reporting Facility
EDT Latitude Longitude Course Direction KTS MPH feet Rate Location/Type
11:58AM 44.1609 -121.3152 55° Northeast  Level FlightAware Approximate
11:59AM 44.0954 -121.4592 56° Northeast  Level FlightAware Approximate
12:00PM 44.2681 -121.1028 169° South 169 194 4,500  Level Seattle Center
12:01PM 44.2169 -121.0889 226° Southwest 199 229 6,700 2,580 Climbing Seattle Center
12:02PM 44.1736 -121.1525 240° Southwest 230 265 9,900 3,000 Climbing Seattle Center
12:03PM 44.1369 -121.2406 232° Southwest 254 292 12,900 2,580 Climbing Seattle Center
12:04PM 44.0864 -121.3297 198° South 307 353 15,200 2,340 Climbing Seattle Center
12:05PM 44.0008 -121.3675 197° South 328 377 17,700 2,100 Climbing Seattle Center
12:06PM 43.9056 -121.4075 197° South 339 390 19,500 1,800 Climbing Seattle Center
12:07PM 43.7961 -121.4525 197° South 359 413 21,400 1,620 Climbing Seattle Center
12:08PM 43.6981 -121.4942 197° South 365 420 22,900 1,440 Climbing Seattle Center
12:09PM 43.5917 -121.5381 196° South 397 457 24,400 1,440 Climbing Seattle Center
12:10PM 43.4853 -121.5808 196° South 396 456 25,900 1,440 Climbing Seattle Center
12:11PM 43.3792 -121.6239 197° South 398 458 27,400 1,260 Climbing Seattle Center
12:12PM 43.2722 -121.6678 196° South 400 460 28,500 960 Climbing Seattle Center
12:13PM 43.1633 -121.7117 197° South 406 467 29,400 780 Climbing Seattle Center
12:14PM 43.0517 -121.7578 196° South 415 478 30,200 780 Climbing Seattle Center
12:15PM 42.9386 -121.8031 197° South 421 484 31,000 780 Climbing Seattle Center
12:16PM 42.8247 -121.8494 196° South 425 489 31,800 780 Climbing Seattle Center
12:17PM 42.7111 -121.8950 196° South 426 490 32,600 780 Climbing Seattle Center
12:18PM 42.5750 -121.9497 196° South 426 490 33,400 660 Climbing Seattle Center
12:19PM 42.4625 -121.9936 196° South 424 488 34,000 600 Climbing Seattle Center
12:20PM 42.3506 -122.0381 196° South 421 484 34,700 480 Climbing Seattle Center
12:21PM 42.2389 -122.0825 196° South 422 486 35,000 120 Climbing Seattle Center
12:22PM 42.1275 -122.1244 196° South 423 487 35,000  Level Seattle Center
12:23PM 42.0100 -122.1711 196° South 442 509 35,000  Level Seattle Center
12:24PM 41.8903 -122.2186 197° South 452 520 35,000  Level Seattle Center
12:25PM 41.7411 -122.2808 196° South 467 537 35,000  Level Seattle Center
12:26PM 41.6131 -122.3294 196° South 477 549 35,000  Level Seattle Center
12:27PM 41.4839 -122.3783 196° South 481 554 35,000  Level Seattle Center
12:28PM 41.3542 -122.4272 196° South 483 556 35,000 120 Level Seattle Center
12:29PM 41.2242 -122.4769 196° South 485 558 35,300 300 Climbing Seattle Center
12:30PM 41.0961 -122.5261 214° Southwest 482 555 35,700 300 Climbing Seattle Center
12:31PM 40.9953 -122.6161 217° Southwest 445 512 36,000 120 Climbing Seattle Center
12:32PM 40.8983 -122.7142 218° Southwest 441 507 36,000  Level Seattle Center
12:33PM 40.8014 -122.8133 218° Southwest 441 507 36,000  Level Seattle Center
12:34PM 40.6856 -122.9314 218° Southwest 441 507 36,000  Level Seattle Center
12:35PM 40.5886 -123.0297 218° Southwest 441 507 36,000  Level Seattle Center
12:36PM 40.4931 -123.1278 218° Southwest 439 505 36,000  Level Seattle Center
12:37PM 40.3986 -123.2233 217° Southwest 439 505 36,000  Level Seattle Center
12:38PM 40.3017 -123.3208 217° Southwest 438 504 36,000  Level Seattle Center
12:40PM 40.0853 -123.5375 217° Southwest 440 506 36,000  Level Oakland Center
12:41PM 39.9872 -123.6342 218° Southwest 440 506 36,000  Level Oakland Center
12:42PM 39.8892 -123.7333 217° Southwest 440 506 36,000  Level Oakland Center
12:43PM 39.7950 -123.8269 217° Southwest 440 506 36,000  Level Oakland Center
12:44PM 39.6969 -123.9228 217° Southwest 440 506 36,000  Level Oakland Center
12:45PM 39.6006 -124.0186 217° Southwest 440 506 36,000  Level Oakland Center
12:46PM 39.5064 -124.1114 217° Southwest 440 506 36,000  Level Oakland Center
12:47PM 39.4100 -124.2039 218° Southwest 435 501 36,000 -60 Level Oakland Center
12:48PM 39.3178 -124.2964 216° Southwest 435 501 35,900  Descending Oakland Center
12:49PM 39.2236 -124.3858 217° Southwest 435 501 36,000  Climbing Oakland Center
12:50PM 39.1269 -124.4803 216° Southwest 435 501 36,000  Level Oakland Center
12:51PM 39.0303 -124.5717 218° Southwest 435 501 36,000  Level Oakland Center
12:52PM 38.9336 -124.6683 215° Southwest 435 501 36,000  Level Oakland Center
12:53PM 38.8347 -124.7567 218° Southwest 435 501 36,000  Level Oakland Center
12:54PM 38.7397 -124.8528 217° Southwest 435 501 36,000  Level Oakland Center
12:55PM 38.6428 -124.9461 216° Southwest 440 506 36,000  Level Oakland Center
12:56PM 38.5458 -125.0364 217° Southwest 440 506 36,000  Level Oakland Center
12:57PM 38.4489 -125.1292 216° Southwest 440 506 36,000  Level Oakland Center
12:58PM 38.3475 -125.2214 219° Southwest 446 513 36,000  Level Oakland Center
12:59PM 38.2564 -125.3139 215° Southwest 441 507 36,000  Level Oakland Center
01:00PM 38.1550 -125.4056 217° Southwest 441 507 36,000  Level Oakland Center
01:01PM 38.0597 -125.4975 215° Southwest 441 507 36,000  Level Oakland Center
01:02PM 37.9581 -125.5886 217° Southwest 446 513 36,000  Level Oakland Center
01:03PM 37.8628 -125.6800 216° Southwest 446 513 36,000  Level Oakland Center
01:04PM 37.7608 -125.7733 215° Southwest 446 513 36,000  Level Oakland Center
01:05PM 37.6592 -125.8639 217° Southwest 451 519 36,000  Level Oakland Center
01:06PM 37.5633 -125.9547 216° Southwest 438 504 36,000  Level Oakland Center
01:07PM 37.4636 -126.0447 216° Southwest 427 491 36,000  Level Oakland Center
01:08PM 37.3636 -126.1375 217° Southwest 432 497 36,000  Level Oakland Center
01:09PM 37.2656 -126.2297 214° Southwest 437 503 36,000  Level Oakland Center
01:10PM 37.1592 -126.3214 216° Southwest 437 503 36,000  Level Oakland Center
01:11PM 37.0589 -126.4133 214° Southwest 437 503 36,000  Level Oakland Center
01:12PM 36.9525 -126.5017 219° Southwest 444 511 36,000  Level Oakland Center
01:13PM 36.8561 -126.5986 214° Southwest 444 511 36,000  Level Oakland Center
01:14PM 36.7517 -126.6867 215° Southwest 444 511 36,000  Level Oakland Center
01:15PM 36.6472 -126.7772 218° Southwest 439 505 36,000  Level Oakland Center
01:16PM 36.5508 -126.8708 211° Southwest 439 505 36,000  Level Oakland Center
01:19PM 36.4667 -126.9333 250° West 427 491 36,000  Level Oakland Oceanic (ODAPS)
02:16PM 34.0167 -134.3500 246° West 434 499 36,000  Level Oakland Oceanic (ODAPS)
03:09PM 31.1833 -141.2833 242° Southwest 445 512 36,000  Level Oakland Oceanic (ODAPS)
04:06PM 27.9000 -147.9667 239° Southwest 472 543 36,000  Level Oakland Oceanic (ODAPS)
04:55PM 24.0667 -154.6000 234° Southwest 460 529 36,000  Level Honolulu Center
04:56PM 24.0000 -154.7000 222° Southwest 460 529 36,000  Level Honolulu Center
04:57PM 23.9000 -154.8000 205° Southwest 460 529 36,000  Level Honolulu Center
04:58PM 23.7667 -154.8667 195° South 460 529 36,000  Level Honolulu Center
04:59PM 23.6500 -154.9000 199° South 470 541 36,000  Level Honolulu Center
05:00PM 23.5167 -154.9500 201° Southwest 470 541 36,000  Level Honolulu Center
05:01PM 23.4000 -155.0000 201° Southwest 470 541 36,000  Level Honolulu Center
05:02PM 23.2833 -155.0500 199° South 470 541 36,000  Level Honolulu Center
05:03PM 23.1500 -155.1000 202° Southwest 470 541 36,000  Level Honolulu Center
05:04PM 23.0333 -155.1500 199° South 470 541 36,000  Level Honolulu Center
05:05PM 22.9000 -155.2000 202° Southwest 470 541 36,000  Level Honolulu Center
05:06PM 22.7833 -155.2500 199° South 480 552 36,000  Level Honolulu Center
05:07PM 22.6500 -155.3000 202° Southwest 480 552 36,000  Level Honolulu Center
05:08PM 22.5333 -155.3500 199° South 480 552 36,000  Level Honolulu Center
05:09PM 22.4000 -155.4000 202° Southwest 480 552 36,000  Level Honolulu Center
05:10PM 22.2833 -155.4500 199° South 480 552 36,000 -480 Level Honolulu Center
05:11PM 22.1500 -155.5000 199° South 490 564 35,100 -1,200 Descending Honolulu Center
05:12PM 22.0167 -155.5500 199° South 490 564 33,700 -1,500 Descending Honolulu Center
05:13PM 21.8833 -155.6000 202° Southwest 490 564 32,100 -1,680 Descending Honolulu Center
05:14PM 21.7667 -155.6500 202° Southwest 480 552 30,400 -1,800 Descending Honolulu Center
05:15PM 21.6500 -155.7000 199° South 450 518 28,500 -1,920 Descending Honolulu Center
05:16PM 21.5167 -155.7500 195° South 460 529 26,600 -1,920 Descending Honolulu Center
05:17PM 21.4000 -155.7833 202° Southwest 440 506 24,700 -1,920 Descending Honolulu Center
05:18PM 21.2833 -155.8333 202° Southwest 440 506 22,800 -2,100 Descending Honolulu Center
05:19PM 21.1667 -155.8833 197° South 440 506 20,600 -1,800 Descending Honolulu Center
05:20PM 21.0667 -155.9167 199° South 420 483 19,200 -1,740 Descending Honolulu Center
05:21PM 20.9333 -155.9667 201° Southwest 410 472 17,200 -1,800 Descending Honolulu Center
05:22PM 20.8500 -156.0000 180° South 400 460 15,600 -1,800 Descending Honolulu Center
05:23PM 20.7333 -156.0000 189° South 380 437 13,600 -1,800 Descending Honolulu Center
05:24PM 20.6333 -156.0167 180° South 370 426 12,000 -1,500 Descending Honolulu Center
05:25PM 20.5333 -156.0167 180° South 340 391 10,600 -1,380 Descending Honolulu Center
05:26PM 20.4500 -156.0167 180° South 280 322 9,300 -1,260 Descending Honolulu Center
05:27PM 20.3667 -156.0167 180° South 290 334 8,100 -1,140 Descending Honolulu Center
05:28PM 20.2833 -156.0167 180° South 280 322 7,100 -960 Descending Honolulu Center
05:29PM 20.2167 -156.0167 180° South 280 322 6,200 -960 Descending Honolulu Center
05:30PM 20.1333 -156.0167 191° South 270 311 5,200 -1,020 Descending Honolulu Center
05:31PM 20.0500 -156.0333 167° South 270 311 4,200 -1,020 Descending Honolulu Center
05:32PM 19.9833 -156.0167 180° South 250 288 3,200 -600 Descending Honolulu Center
05:33PM 19.9167 -156.0167 197° South 210 242 3,000 -360 Descending Honolulu Center
05:34PM 19.8667 -156.0333 180° South 190 219 2,500 -720 Descending Honolulu Center
05:35PM 19.8167 -156.0333 180° South 170 196 1,600 -840 Descending Honolulu Center
05:36PM 19.7833 -156.0333 180° South 120 138 900 -720 Descending Honolulu Center
05:37PM 19.7500 -156.0333 180° South 120 138 200 -720 Descending Honolulu Center